sensor_id;sensor_type;location;lat;lon;timestamp;P1;durP1;ratioP1;P2;durP2;ratioP2
14778;SDS011;7481;53.750;10.570;2023-02-18T00:01:07;23.20;;;4.50;;
14778;SDS011;7481;53.750;10.570;2023-02-18T00:03:54;19.50;;;4.47;;
14778;SDS011;7481;53.750;10.570;2023-02-18T00:06:43;22.70;;;4.47;;
14778;SDS011;7481;53.750;10.570;2023-02-18T00:09:30;18.63;;;4.27;;
14778;SDS011;7481;53.750;10.570;2023-02-18T00:12:17;16.20;;;3.80;;
14778;SDS011;7481;53.750;10.570;2023-02-18T00:15:05;21.13;;;4.47;;
14778;SDS011;7481;53.750;10.570;2023-02-18T00:17:52;23.40;;;4.63;;
14778;SDS011;7481;53.750;10.570;2023-02-18T00:20:40;21.53;;;5.00;;
14778;SDS011;7481;53.750;10.570;2023-02-18T00:23:27;19.60;;;4.03;;
14778;SDS011;7481;53.750;10.570;2023-02-18T00:26:15;20.40;;;4.67;;
14778;SDS011;7481;53.750;10.570;2023-02-18T00:29:03;29.37;;;5.03;;
14778;SDS011;7481;53.750;10.570;2023-02-18T00:31:50;19.90;;;5.03;;
14778;SDS011;7481;53.750;10.570;2023-02-18T00:34:38;19.90;;;4.27;;
14778;SDS011;7481;53.750;10.570;2023-02-18T00:37:25;19.93;;;4.70;;
14778;SDS011;7481;53.750;10.570;2023-02-18T00:40:12;17.10;;;4.17;;
14778;SDS011;7481;53.750;10.570;2023-02-18T00:43:00;19.87;;;3.73;;
14778;SDS011;7481;53.750;10.570;2023-02-18T00:45:47;23.93;;;5.13;;
14778;SDS011;7481;53.750;10.570;2023-02-18T00:48:35;17.73;;;5.00;;
14778;SDS011;7481;53.750;10.570;2023-02-18T00:51:22;21.07;;;4.90;;
14778;SDS011;7481;53.750;10.570;2023-02-18T00:54:10;25.27;;;4.37;;
14778;SDS011;7481;53.750;10.570;2023-02-18T00:56:58;21.47;;;5.13;;
14778;SDS011;7481;53.750;10.570;2023-02-18T00:59:45;23.80;;;4.37;;
14778;SDS011;7481;53.750;10.570;2023-02-18T01:02:33;23.20;;;3.93;;
14778;SDS011;7481;53.750;10.570;2023-02-18T01:05:20;20.83;;;4.47;;
14778;SDS011;7481;53.750;10.570;2023-02-18T01:08:08;19.93;;;3.53;;
14778;SDS011;7481;53.750;10.570;2023-02-18T01:10:56;16.43;;;3.90;;
14778;SDS011;7481;53.750;10.570;2023-02-18T01:13:44;14.73;;;3.43;;
14778;SDS011;7481;53.750;10.570;2023-02-18T01:16:31;14.20;;;3.53;;
14778;SDS011;7481;53.750;10.570;2023-02-18T01:19:19;22.03;;;5.67;;
14778;SDS011;7481;53.750;10.570;2023-02-18T01:22:06;19.10;;;4.17;;
14778;SDS011;7481;53.750;10.570;2023-02-18T01:24:53;21.10;;;4.37;;
14778;SDS011;7481;53.750;10.570;2023-02-18T01:27:41;17.77;;;4.63;;
14778;SDS011;7481;53.750;10.570;2023-02-18T01:30:28;16.23;;;3.50;;
14778;SDS011;7481;53.750;10.570;2023-02-18T01:33:16;17.97;;;4.33;;
14778;SDS011;7481;53.750;10.570;2023-02-18T01:36:04;17.70;;;4.27;;
14778;SDS011;7481;53.750;10.570;2023-02-18T01:38:52;24.07;;;4.53;;
14778;SDS011;7481;53.750;10.570;2023-02-18T01:41:39;19.73;;;4.00;;
14778;SDS011;7481;53.750;10.570;2023-02-18T01:44:27;25.43;;;4.37;;
14778;SDS011;7481;53.750;10.570;2023-02-18T01:47:15;27.90;;;4.00;;
14778;SDS011;7481;53.750;10.570;2023-02-18T01:50:03;16.33;;;3.90;;
14778;SDS011;7481;53.750;10.570;2023-02-18T01:52:50;24.43;;;5.27;;
14778;SDS011;7481;53.750;10.570;2023-02-18T01:55:38;19.20;;;3.60;;
14778;SDS011;7481;53.750;10.570;2023-02-18T01:58:25;24.63;;;4.97;;
14778;SDS011;7481;53.750;10.570;2023-02-18T02:01:13;24.13;;;4.60;;
14778;SDS011;7481;53.750;10.570;2023-02-18T02:04:01;21.60;;;4.93;;
14778;SDS011;7481;53.750;10.570;2023-02-18T02:06:48;25.23;;;4.57;;
14778;SDS011;7481;53.750;10.570;2023-02-18T02:09:35;24.90;;;4.50;;
14778;SDS011;7481;53.750;10.570;2023-02-18T02:18:35;24.87;;;4.33;;
14778;SDS011;7481;53.750;10.570;2023-02-18T02:24:37;17.63;;;3.87;;
14778;SDS011;7481;53.750;10.570;2023-02-18T02:27:35;21.77;;;3.87;;
14778;SDS011;7481;53.750;10.570;2023-02-18T02:39:07;19.30;;;4.30;;
14778;SDS011;7481;53.750;10.570;2023-02-18T02:48:00;18.23;;;4.07;;
14778;SDS011;7481;53.750;10.570;2023-02-18T02:50:53;21.80;;;4.27;;
14778;SDS011;7481;53.750;10.570;2023-02-18T02:53:44;22.53;;;4.20;;
14778;SDS011;7481;53.750;10.570;2023-02-18T02:56:31;26.80;;;3.97;;
14778;SDS011;7481;53.750;10.570;2023-02-18T02:59:19;17.63;;;3.57;;
14778;SDS011;7481;53.750;10.570;2023-02-18T03:08:11;21.07;;;3.57;;
14778;SDS011;7481;53.750;10.570;2023-02-18T03:16:52;21.73;;;3.87;;
14778;SDS011;7481;53.750;10.570;2023-02-18T03:19:44;22.00;;;4.90;;
14778;SDS011;7481;53.750;10.570;2023-02-18T03:22:35;17.27;;;3.93;;
14778;SDS011;7481;53.750;10.570;2023-02-18T03:25:24;18.27;;;3.37;;
14778;SDS011;7481;53.750;10.570;2023-02-18T03:28:16;19.70;;;4.30;;
14778;SDS011;7481;53.750;10.570;2023-02-18T03:31:06;23.27;;;4.23;;
14778;SDS011;7481;53.750;10.570;2023-02-18T03:33:58;21.67;;;4.53;;
14778;SDS011;7481;53.750;10.570;2023-02-18T03:36:47;15.83;;;3.53;;
14778;SDS011;7481;53.750;10.570;2023-02-18T03:39:35;16.03;;;3.87;;
14778;SDS011;7481;53.750;10.570;2023-02-18T03:42:26;21.53;;;4.90;;
14778;SDS011;7481;53.750;10.570;2023-02-18T03:45:14;15.30;;;4.30;;
14778;SDS011;7481;53.750;10.570;2023-02-18T03:48:01;19.27;;;3.50;;
14778;SDS011;7481;53.750;10.570;2023-02-18T03:50:49;20.43;;;3.87;;
14778;SDS011;7481;53.750;10.570;2023-02-18T03:53:36;25.17;;;4.77;;
14778;SDS011;7481;53.750;10.570;2023-02-18T03:56:24;18.27;;;4.33;;
14778;SDS011;7481;53.750;10.570;2023-02-18T03:59:11;14.33;;;3.13;;
14778;SDS011;7481;53.750;10.570;2023-02-18T04:01:59;15.43;;;3.70;;
14778;SDS011;7481;53.750;10.570;2023-02-18T04:04:46;18.40;;;3.10;;
14778;SDS011;7481;53.750;10.570;2023-02-18T04:07:33;11.07;;;3.23;;
14778;SDS011;7481;53.750;10.570;2023-02-18T04:10:21;16.17;;;3.83;;
14778;SDS011;7481;53.750;10.570;2023-02-18T04:13:08;17.97;;;3.57;;
14778;SDS011;7481;53.750;10.570;2023-02-18T04:15:56;13.70;;;3.57;;
14778;SDS011;7481;53.750;10.570;2023-02-18T04:18:43;13.30;;;2.30;;
14778;SDS011;7481;53.750;10.570;2023-02-18T04:21:31;12.50;;;3.73;;
14778;SDS011;7481;53.750;10.570;2023-02-18T04:24:19;23.03;;;4.13;;
14778;SDS011;7481;53.750;10.570;2023-02-18T04:27:06;14.70;;;3.07;;
14778;SDS011;7481;53.750;10.570;2023-02-18T04:29:54;10.33;;;2.43;;
14778;SDS011;7481;53.750;10.570;2023-02-18T04:32:41;10.80;;;3.60;;
14778;SDS011;7481;53.750;10.570;2023-02-18T04:35:28;10.43;;;2.20;;
14778;SDS011;7481;53.750;10.570;2023-02-18T04:38:16;8.47;;;2.40;;
14778;SDS011;7481;53.750;10.570;2023-02-18T04:41:03;14.80;;;2.73;;
14778;SDS011;7481;53.750;10.570;2023-02-18T04:43:51;12.77;;;2.60;;
14778;SDS011;7481;53.750;10.570;2023-02-18T04:46:38;8.27;;;2.37;;
14778;SDS011;7481;53.750;10.570;2023-02-18T04:49:25;4.97;;;2.73;;
14778;SDS011;7481;53.750;10.570;2023-02-18T04:52:13;11.07;;;2.10;;
14778;SDS011;7481;53.750;10.570;2023-02-18T04:55:00;26.83;;;3.37;;
14778;SDS011;7481;53.750;10.570;2023-02-18T04:57:47;10.77;;;1.80;;
14778;SDS011;7481;53.750;10.570;2023-02-18T05:00:35;7.30;;;2.73;;
14778;SDS011;7481;53.750;10.570;2023-02-18T05:03:22;8.33;;;2.30;;
14778;SDS011;7481;53.750;10.570;2023-02-18T05:06:10;7.63;;;2.23;;
14778;SDS011;7481;53.750;10.570;2023-02-18T05:08:57;9.87;;;2.00;;
14778;SDS011;7481;53.750;10.570;2023-02-18T05:11:45;7.40;;;2.13;;
14778;SDS011;7481;53.750;10.570;2023-02-18T05:14:33;8.80;;;1.97;;
14778;SDS011;7481;53.750;10.570;2023-02-18T05:17:20;6.87;;;2.37;;
14778;SDS011;7481;53.750;10.570;2023-02-18T05:20:08;8.10;;;2.17;;
14778;SDS011;7481;53.750;10.570;2023-02-18T05:22:55;10.83;;;2.63;;
14778;SDS011;7481;53.750;10.570;2023-02-18T05:25:43;8.83;;;2.13;;
14778;SDS011;7481;53.750;10.570;2023-02-18T05:28:36;11.77;;;3.63;;
14778;SDS011;7481;53.750;10.570;2023-02-18T05:31:27;12.60;;;2.43;;
14778;SDS011;7481;53.750;10.570;2023-02-18T05:34:18;10.37;;;2.30;;
14778;SDS011;7481;53.750;10.570;2023-02-18T05:37:08;10.10;;;2.63;;
14778;SDS011;7481;53.750;10.570;2023-02-18T05:40:09;10.33;;;2.40;;
14778;SDS011;7481;53.750;10.570;2023-02-18T05:42:57;15.67;;;4.40;;
14778;SDS011;7481;53.750;10.570;2023-02-18T05:46:09;13.53;;;2.47;;
14778;SDS011;7481;53.750;10.570;2023-02-18T05:49:07;9.57;;;2.80;;
14778;SDS011;7481;53.750;10.570;2023-02-18T05:52:05;13.93;;;3.17;;
14778;SDS011;7481;53.750;10.570;2023-02-18T05:55:18;8.87;;;2.33;;
14778;SDS011;7481;53.750;10.570;2023-02-18T05:58:08;10.60;;;2.10;;
14778;SDS011;7481;53.750;10.570;2023-02-18T06:01:00;10.27;;;2.87;;
14778;SDS011;7481;53.750;10.570;2023-02-18T06:04:00;14.20;;;2.50;;
14778;SDS011;7481;53.750;10.570;2023-02-18T06:06:52;7.43;;;2.00;;
14778;SDS011;7481;53.750;10.570;2023-02-18T06:09:45;14.60;;;2.97;;
14778;SDS011;7481;53.750;10.570;2023-02-18T06:12:47;9.43;;;2.30;;
14778;SDS011;7481;53.750;10.570;2023-02-18T06:15:39;10.43;;;2.40;;
14778;SDS011;7481;53.750;10.570;2023-02-18T06:18:50;14.93;;;2.60;;
14778;SDS011;7481;53.750;10.570;2023-02-18T06:21:46;11.47;;;2.93;;
14778;SDS011;7481;53.750;10.570;2023-02-18T06:24:48;12.90;;;2.90;;
14778;SDS011;7481;53.750;10.570;2023-02-18T06:27:37;11.30;;;2.53;;
14778;SDS011;7481;53.750;10.570;2023-02-18T06:30:29;8.87;;;2.23;;
14778;SDS011;7481;53.750;10.570;2023-02-18T06:33:16;10.37;;;2.70;;
14778;SDS011;7481;53.750;10.570;2023-02-18T06:36:05;14.07;;;3.20;;
14778;SDS011;7481;53.750;10.570;2023-02-18T06:38:53;9.00;;;2.60;;
14778;SDS011;7481;53.750;10.570;2023-02-18T06:42:00;7.40;;;2.50;;
14778;SDS011;7481;53.750;10.570;2023-02-18T06:45:07;11.60;;;2.43;;
14778;SDS011;7481;53.750;10.570;2023-02-18T06:47:58;13.50;;;2.47;;
14778;SDS011;7481;53.750;10.570;2023-02-18T06:50:52;5.83;;;1.97;;
14778;SDS011;7481;53.750;10.570;2023-02-18T06:53:47;9.60;;;2.60;;
14778;SDS011;7481;53.750;10.570;2023-02-18T06:56:49;9.17;;;2.53;;
14778;SDS011;7481;53.750;10.570;2023-02-18T07:02:51;11.33;;;2.40;;
14778;SDS011;7481;53.750;10.570;2023-02-18T07:05:45;8.40;;;2.40;;
14778;SDS011;7481;53.750;10.570;2023-02-18T07:08:46;11.87;;;3.33;;
14778;SDS011;7481;53.750;10.570;2023-02-18T07:11:43;9.23;;;2.23;;
14778;SDS011;7481;53.750;10.570;2023-02-18T07:14:53;9.13;;;2.33;;
14778;SDS011;7481;53.750;10.570;2023-02-18T07:18:16;9.13;;;2.03;;
14778;SDS011;7481;53.750;10.570;2023-02-18T07:21:18;8.57;;;1.97;;
14778;SDS011;7481;53.750;10.570;2023-02-18T07:24:14;15.20;;;2.80;;
14778;SDS011;7481;53.750;10.570;2023-02-18T07:27:08;11.73;;;2.83;;
14778;SDS011;7481;53.750;10.570;2023-02-18T07:30:00;6.13;;;2.37;;
14778;SDS011;7481;53.750;10.570;2023-02-18T07:32:56;9.20;;;2.40;;
14778;SDS011;7481;53.750;10.570;2023-02-18T07:35:56;6.37;;;2.20;;
14778;SDS011;7481;53.750;10.570;2023-02-18T07:39:10;7.40;;;1.97;;
14778;SDS011;7481;53.750;10.570;2023-02-18T07:42:01;6.63;;;2.07;;
14778;SDS011;7481;53.750;10.570;2023-02-18T07:44:55;9.63;;;2.73;;
14778;SDS011;7481;53.750;10.570;2023-02-18T07:48:01;6.80;;;2.00;;
14778;SDS011;7481;53.750;10.570;2023-02-18T07:51:06;6.60;;;1.77;;
14778;SDS011;7481;53.750;10.570;2023-02-18T07:54:03;9.20;;;2.00;;
14778;SDS011;7481;53.750;10.570;2023-02-18T07:57:00;7.07;;;2.30;;
14778;SDS011;7481;53.750;10.570;2023-02-18T08:03:08;6.33;;;2.17;;
14778;SDS011;7481;53.750;10.570;2023-02-18T08:06:21;9.43;;;1.83;;
14778;SDS011;7481;53.750;10.570;2023-02-18T08:09:11;3.93;;;1.70;;
14778;SDS011;7481;53.750;10.570;2023-02-18T08:11:59;5.30;;;1.43;;
14778;SDS011;7481;53.750;10.570;2023-02-18T08:14:47;4.80;;;1.53;;
14778;SDS011;7481;53.750;10.570;2023-02-18T08:17:34;7.43;;;1.50;;
14778;SDS011;7481;53.750;10.570;2023-02-18T08:20:22;4.57;;;1.23;;
14778;SDS011;7481;53.750;10.570;2023-02-18T08:23:09;4.57;;;1.70;;
14778;SDS011;7481;53.750;10.570;2023-02-18T08:25:57;5.27;;;1.60;;
14778;SDS011;7481;53.750;10.570;2023-02-18T08:28:44;4.60;;;1.70;;
14778;SDS011;7481;53.750;10.570;2023-02-18T08:31:32;6.10;;;1.57;;
14778;SDS011;7481;53.750;10.570;2023-02-18T08:34:20;6.67;;;2.03;;
14778;SDS011;7481;53.750;10.570;2023-02-18T08:37:08;7.87;;;1.90;;
14778;SDS011;7481;53.750;10.570;2023-02-18T08:39:55;6.53;;;1.70;;
14778;SDS011;7481;53.750;10.570;2023-02-18T08:42:42;7.80;;;1.60;;
14778;SDS011;7481;53.750;10.570;2023-02-18T08:45:30;5.00;;;1.70;;
14778;SDS011;7481;53.750;10.570;2023-02-18T08:48:21;3.93;;;2.20;;
14778;SDS011;7481;53.750;10.570;2023-02-18T08:51:20;9.27;;;3.73;;
14778;SDS011;7481;53.750;10.570;2023-02-18T08:54:07;8.77;;;3.00;;
14778;SDS011;7481;53.750;10.570;2023-02-18T08:56:55;7.77;;;1.80;;
14778;SDS011;7481;53.750;10.570;2023-02-18T08:59:43;6.17;;;1.63;;
14778;SDS011;7481;53.750;10.570;2023-02-18T09:02:30;6.43;;;2.00;;
14778;SDS011;7481;53.750;10.570;2023-02-18T09:05:18;5.17;;;2.10;;
14778;SDS011;7481;53.750;10.570;2023-02-18T09:08:05;8.10;;;1.90;;
14778;SDS011;7481;53.750;10.570;2023-02-18T09:10:54;5.27;;;1.57;;
14778;SDS011;7481;53.750;10.570;2023-02-18T09:13:42;4.80;;;2.20;;
14778;SDS011;7481;53.750;10.570;2023-02-18T09:16:29;5.40;;;1.80;;
14778;SDS011;7481;53.750;10.570;2023-02-18T09:19:17;7.40;;;2.40;;
14778;SDS011;7481;53.750;10.570;2023-02-18T09:22:04;4.03;;;1.63;;
14778;SDS011;7481;53.750;10.570;2023-02-18T09:24:51;5.83;;;2.20;;
14778;SDS011;7481;53.750;10.570;2023-02-18T09:27:39;9.30;;;2.77;;
14778;SDS011;7481;53.750;10.570;2023-02-18T09:30:26;5.83;;;2.40;;
14778;SDS011;7481;53.750;10.570;2023-02-18T09:33:14;8.37;;;3.47;;
14778;SDS011;7481;53.750;10.570;2023-02-18T09:36:02;7.70;;;3.47;;
14778;SDS011;7481;53.750;10.570;2023-02-18T09:38:49;10.68;;;3.05;;
14778;SDS011;7481;53.750;10.570;2023-02-18T09:41:41;9.20;;;3.70;;
14778;SDS011;7481;53.750;10.570;2023-02-18T09:45:04;12.97;;;3.80;;
14778;SDS011;7481;53.750;10.570;2023-02-18T09:47:43;9.20;;;3.27;;
14778;SDS011;7481;53.750;10.570;2023-02-18T09:50:31;10.03;;;4.30;;
14778;SDS011;7481;53.750;10.570;2023-02-18T09:53:20;4.57;;;2.57;;
14778;SDS011;7481;53.750;10.570;2023-02-18T09:56:08;4.90;;;2.27;;
14778;SDS011;7481;53.750;10.570;2023-02-18T09:58:58;11.93;;;3.65;;
14778;SDS011;7481;53.750;10.570;2023-02-18T10:01:48;9.90;;;3.13;;
14778;SDS011;7481;53.750;10.570;2023-02-18T10:04:40;10.57;;;3.33;;
14778;SDS011;7481;53.750;10.570;2023-02-18T10:07:31;8.70;;;2.57;;
14778;SDS011;7481;53.750;10.570;2023-02-18T10:10:41;11.97;;;3.70;;
14778;SDS011;7481;53.750;10.570;2023-02-18T10:13:30;6.90;;;3.50;;
14778;SDS011;7481;53.750;10.570;2023-02-18T10:16:18;9.27;;;4.10;;
14778;SDS011;7481;53.750;10.570;2023-02-18T10:22:01;7.70;;;3.47;;
14778;SDS011;7481;53.750;10.570;2023-02-18T10:24:53;8.90;;;3.73;;
14778;SDS011;7481;53.750;10.570;2023-02-18T10:27:41;8.30;;;3.17;;
14778;SDS011;7481;53.750;10.570;2023-02-18T10:30:32;7.83;;;4.03;;
14778;SDS011;7481;53.750;10.570;2023-02-18T10:36:25;9.87;;;3.70;;
14778;SDS011;7481;53.750;10.570;2023-02-18T10:39:26;6.50;;;2.40;;
14778;SDS011;7481;53.750;10.570;2023-02-18T10:46:47;4.93;;;2.30;;
14778;SDS011;7481;53.750;10.570;2023-02-18T10:51:49;8.37;;;2.73;;
14778;SDS011;7481;53.750;10.570;2023-02-18T10:57:50;8.53;;;3.90;;
14778;SDS011;7481;53.750;10.570;2023-02-18T11:00:37;7.80;;;4.80;;
14778;SDS011;7481;53.750;10.570;2023-02-18T11:03:36;8.67;;;5.70;;
14778;SDS011;7481;53.750;10.570;2023-02-18T11:06:31;8.90;;;5.60;;
14778;SDS011;7481;53.750;10.570;2023-02-18T11:12:23;8.60;;;5.43;;
14778;SDS011;7481;53.750;10.570;2023-02-18T11:18:26;13.33;;;8.07;;
14778;SDS011;7481;53.750;10.570;2023-02-18T11:24:14;7.93;;;6.43;;
14778;SDS011;7481;53.750;10.570;2023-02-18T11:27:02;10.73;;;6.57;;
14778;SDS011;7481;53.750;10.570;2023-02-18T11:30:13;10.13;;;5.63;;
14778;SDS011;7481;53.750;10.570;2023-02-18T11:33:05;9.43;;;5.30;;
14778;SDS011;7481;53.750;10.570;2023-02-18T11:35:54;9.33;;;5.90;;
14778;SDS011;7481;53.750;10.570;2023-02-18T11:38:55;9.53;;;6.37;;
14778;SDS011;7481;53.750;10.570;2023-02-18T11:41:47;7.73;;;4.77;;
14778;SDS011;7481;53.750;10.570;2023-02-18T11:44:39;8.23;;;5.13;;
14778;SDS011;7481;53.750;10.570;2023-02-18T11:47:34;7.57;;;4.50;;
14778;SDS011;7481;53.750;10.570;2023-02-18T11:50:22;7.93;;;4.20;;
14778;SDS011;7481;53.750;10.570;2023-02-18T11:53:30;5.97;;;4.10;;
14778;SDS011;7481;53.750;10.570;2023-02-18T11:56:18;8.60;;;4.60;;
14778;SDS011;7481;53.750;10.570;2023-02-18T11:59:08;4.90;;;3.50;;
14778;SDS011;7481;53.750;10.570;2023-02-18T12:02:42;6.07;;;4.33;;
14778;SDS011;7481;53.750;10.570;2023-02-18T12:05:08;9.37;;;4.53;;
14778;SDS011;7481;53.750;10.570;2023-02-18T12:07:58;6.33;;;4.37;;
14778;SDS011;7481;53.750;10.570;2023-02-18T12:10:51;4.20;;;3.30;;
14778;SDS011;7481;53.750;10.570;2023-02-18T12:13:47;4.17;;;3.03;;
14778;SDS011;7481;53.750;10.570;2023-02-18T12:23:07;5.43;;;3.47;;
14778;SDS011;7481;53.750;10.570;2023-02-18T12:29:13;7.07;;;3.37;;
14778;SDS011;7481;53.750;10.570;2023-02-18T12:32:10;5.00;;;3.37;;
14778;SDS011;7481;53.750;10.570;2023-02-18T12:41:58;5.63;;;3.70;;
14778;SDS011;7481;53.750;10.570;2023-02-18T12:44:29;4.07;;;2.87;;
14778;SDS011;7481;53.750;10.570;2023-02-18T12:50:36;3.53;;;2.60;;
14778;SDS011;7481;53.750;10.570;2023-02-18T13:13:32;2.33;;;2.07;;
14778;SDS011;7481;53.750;10.570;2023-02-18T13:16:20;2.60;;;1.83;;
14778;SDS011;7481;53.750;10.570;2023-02-18T13:22:01;3.27;;;1.77;;
14778;SDS011;7481;53.750;10.570;2023-02-18T13:24:50;2.73;;;1.60;;
14778;SDS011;7481;53.750;10.570;2023-02-18T13:30:41;1.80;;;1.50;;
14778;SDS011;7481;53.750;10.570;2023-02-18T13:36:27;2.60;;;1.87;;
14778;SDS011;7481;53.750;10.570;2023-02-18T13:39:19;3.53;;;1.50;;
14778;SDS011;7481;53.750;10.570;2023-02-18T13:42:19;1.80;;;1.20;;
14778;SDS011;7481;53.750;10.570;2023-02-18T13:45:22;0.67;;;0.67;;
14778;SDS011;7481;53.750;10.570;2023-02-18T13:48:24;0.80;;;0.70;;
14778;SDS011;7481;53.750;10.570;2023-02-18T13:51:58;0.70;;;0.70;;
14778;SDS011;7481;53.750;10.570;2023-02-18T13:54:22;1.13;;;0.77;;
14778;SDS011;7481;53.750;10.570;2023-02-18T13:57:20;1.07;;;0.60;;
14778;SDS011;7481;53.750;10.570;2023-02-18T14:00:14;0.80;;;0.80;;
14778;SDS011;7481;53.750;10.570;2023-02-18T14:03:20;2.20;;;0.77;;
14778;SDS011;7481;53.750;10.570;2023-02-18T14:06:20;0.60;;;0.60;;
14778;SDS011;7481;53.750;10.570;2023-02-18T14:15:49;0.80;;;0.80;;
14778;SDS011;7481;53.750;10.570;2023-02-18T14:18:23;1.13;;;0.80;;
14778;SDS011;7481;53.750;10.570;2023-02-18T14:23:59;2.00;;;0.93;;
14778;SDS011;7481;53.750;10.570;2023-02-18T14:26:47;1.87;;;0.80;;
14778;SDS011;7481;53.750;10.570;2023-02-18T14:29:35;1.43;;;0.93;;
14778;SDS011;7481;53.750;10.570;2023-02-18T14:32:23;0.53;;;0.30;;
14778;SDS011;7481;53.750;10.570;2023-02-18T14:38:21;0.77;;;0.40;;
14778;SDS011;7481;53.750;10.570;2023-02-18T14:50:11;0.93;;;0.87;;
14778;SDS011;7481;53.750;10.570;2023-02-18T14:53:01;0.67;;;0.67;;
14778;SDS011;7481;53.750;10.570;2023-02-18T14:55:50;0.60;;;0.60;;
14778;SDS011;7481;53.750;10.570;2023-02-18T14:58:41;2.10;;;1.30;;
14778;SDS011;7481;53.750;10.570;2023-02-18T15:01:31;1.07;;;0.97;;
14778;SDS011;7481;53.750;10.570;2023-02-18T15:04:19;1.40;;;1.30;;
14778;SDS011;7481;53.750;10.570;2023-02-18T15:07:07;1.40;;;1.00;;
14778;SDS011;7481;53.750;10.570;2023-02-18T15:09:57;1.30;;;1.20;;
14778;SDS011;7481;53.750;10.570;2023-02-18T15:12:46;1.27;;;1.17;;
14778;SDS011;7481;53.750;10.570;2023-02-18T15:15:33;1.37;;;1.23;;
14778;SDS011;7481;53.750;10.570;2023-02-18T15:18:48;1.83;;;1.13;;
14778;SDS011;7481;53.750;10.570;2023-02-18T15:21:36;1.20;;;1.10;;
14778;SDS011;7481;53.750;10.570;2023-02-18T15:24:34;2.13;;;1.30;;
14778;SDS011;7481;53.750;10.570;2023-02-18T15:27:29;1.33;;;1.10;;
14778;SDS011;7481;53.750;10.570;2023-02-18T15:33:09;1.33;;;1.23;;
14778;SDS011;7481;53.750;10.570;2023-02-18T15:36:02;1.30;;;1.20;;
14778;SDS011;7481;53.750;10.570;2023-02-18T15:38:50;1.10;;;1.00;;
14778;SDS011;7481;53.750;10.570;2023-02-18T15:41:37;1.47;;;1.30;;
14778;SDS011;7481;53.750;10.570;2023-02-18T15:44:26;1.53;;;1.30;;
14778;SDS011;7481;53.750;10.570;2023-02-18T15:47:14;1.70;;;1.50;;
14778;SDS011;7481;53.750;10.570;2023-02-18T15:50:03;1.87;;;1.50;;
14778;SDS011;7481;53.750;10.570;2023-02-18T15:52:50;2.00;;;1.80;;
14778;SDS011;7481;53.750;10.570;2023-02-18T15:55:42;2.37;;;1.30;;
14778;SDS011;7481;53.750;10.570;2023-02-18T15:58:32;1.90;;;1.70;;
14778;SDS011;7481;53.750;10.570;2023-02-18T16:01:27;3.53;;;2.50;;
14778;SDS011;7481;53.750;10.570;2023-02-18T16:04:15;4.40;;;2.73;;
14778;SDS011;7481;53.750;10.570;2023-02-18T16:13:02;2.17;;;1.60;;
14778;SDS011;7481;53.750;10.570;2023-02-18T16:15:50;2.57;;;1.30;;
14778;SDS011;7481;53.750;10.570;2023-02-18T16:18:38;1.50;;;1.40;;
14778;SDS011;7481;53.750;10.570;2023-02-18T16:21:37;2.20;;;1.57;;
14778;SDS011;7481;53.750;10.570;2023-02-18T16:24:28;2.20;;;1.50;;
14778;SDS011;7481;53.750;10.570;2023-02-18T16:27:18;2.08;;;1.88;;
14778;SDS011;7481;53.750;10.570;2023-02-18T16:33:02;2.60;;;2.40;;
14778;SDS011;7481;53.750;10.570;2023-02-18T16:35:50;2.00;;;1.80;;
14778;SDS011;7481;53.750;10.570;2023-02-18T16:38:37;2.03;;;1.83;;
14778;SDS011;7481;53.750;10.570;2023-02-18T16:41:25;2.40;;;1.87;;
14778;SDS011;7481;53.750;10.570;2023-02-18T16:44:12;2.15;;;1.95;;
14778;SDS011;7481;53.750;10.570;2023-02-18T16:47:00;2.60;;;2.40;;
14778;SDS011;7481;53.750;10.570;2023-02-18T16:49:48;2.60;;;2.40;;
14778;SDS011;7481;53.750;10.570;2023-02-18T16:52:37;3.63;;;2.90;;
14778;SDS011;7481;53.750;10.570;2023-02-18T16:55:26;4.57;;;2.77;;
14778;SDS011;7481;53.750;10.570;2023-02-18T16:58:13;2.90;;;2.60;;
14778;SDS011;7481;53.750;10.570;2023-02-18T17:01:01;3.23;;;2.43;;
14778;SDS011;7481;53.750;10.570;2023-02-18T17:03:49;4.33;;;2.43;;
14778;SDS011;7481;53.750;10.570;2023-02-18T17:06:36;2.77;;;2.50;;
14778;SDS011;7481;53.750;10.570;2023-02-18T17:09:24;2.67;;;2.37;;
14778;SDS011;7481;53.750;10.570;2023-02-18T17:12:12;2.93;;;2.40;;
14778;SDS011;7481;53.750;10.570;2023-02-18T17:15:00;2.90;;;2.60;;
14778;SDS011;7481;53.750;10.570;2023-02-18T17:17:47;3.03;;;2.73;;
14778;SDS011;7481;53.750;10.570;2023-02-18T17:20:35;3.40;;;2.83;;
14778;SDS011;7481;53.750;10.570;2023-02-18T17:23:23;3.30;;;2.83;;
14778;SDS011;7481;53.750;10.570;2023-02-18T17:26:13;3.40;;;3.10;;
14778;SDS011;7481;53.750;10.570;2023-02-18T17:29:01;4.63;;;3.40;;
14778;SDS011;7481;53.750;10.570;2023-02-18T17:31:51;3.93;;;3.40;;
14778;SDS011;7481;53.750;10.570;2023-02-18T17:34:42;5.57;;;4.13;;
14778;SDS011;7481;53.750;10.570;2023-02-18T17:37:29;6.10;;;4.73;;
14778;SDS011;7481;53.750;10.570;2023-02-18T17:40:21;5.17;;;4.43;;
14778;SDS011;7481;53.750;10.570;2023-02-18T17:43:09;6.03;;;4.33;;
14778;SDS011;7481;53.750;10.570;2023-02-18T17:45:58;6.17;;;5.07;;
14778;SDS011;7481;53.750;10.570;2023-02-18T17:48:45;7.17;;;5.70;;
14778;SDS011;7481;53.750;10.570;2023-02-18T17:51:33;8.90;;;7.20;;
14778;SDS011;7481;53.750;10.570;2023-02-18T17:54:22;8.60;;;7.10;;
14778;SDS011;7481;53.750;10.570;2023-02-18T17:57:12;9.33;;;6.87;;
14778;SDS011;7481;53.750;10.570;2023-02-18T18:00:00;8.63;;;6.63;;
14778;SDS011;7481;53.750;10.570;2023-02-18T18:02:47;9.80;;;6.67;;
14778;SDS011;7481;53.750;10.570;2023-02-18T18:05:36;7.70;;;5.97;;
14778;SDS011;7481;53.750;10.570;2023-02-18T18:08:23;10.60;;;9.15;;
14778;SDS011;7481;53.750;10.570;2023-02-18T18:11:12;7.80;;;6.47;;
14778;SDS011;7481;53.750;10.570;2023-02-18T18:14:00;8.67;;;6.53;;
14778;SDS011;7481;53.750;10.570;2023-02-18T18:16:47;7.10;;;6.07;;
14778;SDS011;7481;53.750;10.570;2023-02-18T18:19:35;7.60;;;6.27;;
14778;SDS011;7481;53.750;10.570;2023-02-18T18:22:23;7.10;;;5.63;;
14778;SDS011;7481;53.750;10.570;2023-02-18T18:25:21;6.50;;;5.40;;
14778;SDS011;7481;53.750;10.570;2023-02-18T18:28:09;7.47;;;5.53;;
14778;SDS011;7481;53.750;10.570;2023-02-18T18:30:56;5.87;;;4.97;;
14778;SDS011;7481;53.750;10.570;2023-02-18T18:33:44;6.00;;;4.83;;
14778;SDS011;7481;53.750;10.570;2023-02-18T18:36:36;5.33;;;4.70;;
14778;SDS011;7481;53.750;10.570;2023-02-18T18:39:24;6.70;;;4.87;;
14778;SDS011;7481;53.750;10.570;2023-02-18T18:42:11;5.67;;;4.57;;
14778;SDS011;7481;53.750;10.570;2023-02-18T18:44:58;6.90;;;4.50;;
14778;SDS011;7481;53.750;10.570;2023-02-18T18:47:46;5.87;;;4.60;;
14778;SDS011;7481;53.750;10.570;2023-02-18T18:50:34;6.10;;;4.57;;
14778;SDS011;7481;53.750;10.570;2023-02-18T18:53:25;6.00;;;4.50;;
14778;SDS011;7481;53.750;10.570;2023-02-18T18:56:13;6.37;;;4.97;;
14778;SDS011;7481;53.750;10.570;2023-02-18T18:59:01;5.90;;;4.73;;
14778;SDS011;7481;53.750;10.570;2023-02-18T19:01:50;6.10;;;4.33;;
14778;SDS011;7481;53.750;10.570;2023-02-18T19:04:37;6.80;;;4.80;;
14778;SDS011;7481;53.750;10.570;2023-02-18T19:07:25;6.20;;;5.10;;
14778;SDS011;7481;53.750;10.570;2023-02-18T19:10:12;6.10;;;4.80;;
14778;SDS011;7481;53.750;10.570;2023-02-18T19:13:04;8.00;;;5.80;;
14778;SDS011;7481;53.750;10.570;2023-02-18T19:15:58;9.33;;;5.77;;
14778;SDS011;7481;53.750;10.570;2023-02-18T19:18:47;7.30;;;4.83;;
14778;SDS011;7481;53.750;10.570;2023-02-18T19:21:35;7.47;;;5.37;;
14778;SDS011;7481;53.750;10.570;2023-02-18T19:24:22;7.73;;;5.60;;
14778;SDS011;7481;53.750;10.570;2023-02-18T19:27:09;9.70;;;6.13;;
14778;SDS011;7481;53.750;10.570;2023-02-18T19:29:59;8.63;;;5.43;;
14778;SDS011;7481;53.750;10.570;2023-02-18T19:32:47;8.13;;;5.77;;